Weather Underground History

Daily Summary for December 11, 2017 Units:  Metric    English   Both
« Previous Day
Next Day »
Daily Weekly Monthly Yearly Custom
  Current: High: Low: Average:
Temperature: -2.8 °C 1.7 °C -2.8 °C -1.1 °C
Dew Point: -4.7 °C -1.1 °C -4.8 °C -2.9 °C
Humidity: 87% 94% 77% 88%
Wind Speed: 0.0km/h 9.7km/h 0.0km/h 2.5km/h
Wind Gust: 0.0km/h 16.1km/h - -
WindCalm - - ESE
Pressure: 995.5 hPa 995.5 hPa 982.3 hPa -
Precipitation: 1.3 mm      
Historical Graphs
 
 
Tabular Data for December 11, 2017
Time Temperature Dew Point Pressure Wind Wind Speed Wind Gust Humidity Rainfall Rate (Hourly) solar
00:08 -0.7 °C -1.6 °C 982.3 hPa NE 6.4 km/h 11.3 km/h 94% 0.0 mm 0 W/m2
00:18 -0.7 °C -1.6 °C 982.3 hPa Calm   1.6 km/h 94% 0.0 mm 0 W/m2
00:23 -0.8 °C -1.6 °C 982.6 hPa NNE 4.8 km/h 4.8 km/h 94% 0.0 mm 0 W/m2
00:28 -0.8 °C -1.6 °C 983.0 hPa Calm   6.4 km/h 94% 0.0 mm 0 W/m2
00:48 -0.8 °C -1.6 °C 983.0 hPa Calm   6.4 km/h 94% 0.0 mm 0 W/m2
00:53 -0.8 °C -1.6 °C 983.0 hPa Calm   8.0 km/h 94% 0.0 mm 0 W/m2
00:58 -0.8 °C -1.6 °C 983.0 hPa NE 3.2 km/h 4.8 km/h 94% 0.0 mm 0 W/m2
01:03 -0.8 °C -1.6 °C 983.0 hPa Calm     94% 0.0 mm 0 W/m2
01:08 -0.8 °C -1.8 °C 983.0 hPa Calm   6.4 km/h 93% 0.0 mm 0 W/m2
01:18 -0.8 °C -1.8 °C 983.0 hPa NNE 8.0 km/h 8.0 km/h 93% 0.0 mm 0 W/m2
01:23 -0.8 °C -1.8 °C 983.0 hPa NE 1.6 km/h 8.0 km/h 93% 0.0 mm 0 W/m2
01:28 -0.8 °C -1.8 °C 983.0 hPa NNE 4.8 km/h 6.4 km/h 93% 0.0 mm 0 W/m2
01:38 -0.8 °C -1.8 °C 983.3 hPa NNE 6.4 km/h 6.4 km/h 93% 0.0 mm 0 W/m2
01:43 -0.8 °C -1.8 °C 983.0 hPa NE 4.8 km/h 8.0 km/h 93% 0.0 mm 0 W/m2
01:48 -0.8 °C -1.8 °C 983.0 hPa NE 1.6 km/h 8.0 km/h 93% 0.0 mm 0 W/m2
01:53 -0.8 °C -1.8 °C 983.0 hPa NNE 3.2 km/h 14.5 km/h 93% 0.0 mm 0 W/m2
02:08 -0.9 °C -1.9 °C 983.6 hPa NNE 3.2 km/h 6.4 km/h 93% 0.0 mm 0 W/m2
02:13 -0.9 °C -1.9 °C 983.6 hPa NNE 1.6 km/h 6.4 km/h 93% 0.0 mm 0 W/m2
02:18 -0.8 °C -1.8 °C 983.6 hPa NE 8.0 km/h 8.0 km/h 93% 0.0 mm 0 W/m2
02:28 -0.8 °C -1.8 °C 983.6 hPa Calm   4.8 km/h 93% 0.0 mm 0 W/m2
02:33 -0.8 °C -1.8 °C 983.6 hPa NNE 1.6 km/h 3.2 km/h 93% 0.0 mm 0 W/m2
02:38 -0.9 °C -1.9 °C 983.6 hPa NE 6.4 km/h 8.0 km/h 93% 0.0 mm 0 W/m2
02:43 -0.9 °C -1.9 °C 984.0 hPa NNE 9.7 km/h 11.3 km/h 93% 0.0 mm 0 W/m2
02:53 -0.9 °C -1.9 °C 984.0 hPa NNE 3.2 km/h 6.4 km/h 93% 0.0 mm 0 W/m2
02:58 -1.0 °C -2.0 °C 984.0 hPa NNE 1.6 km/h 6.4 km/h 93% 0.0 mm 0 W/m2
03:03 -1.0 °C -2.0 °C 984.0 hPa Calm   4.8 km/h 93% 0.0 mm 0 W/m2
03:09 -1.0 °C -2.0 °C 984.0 hPa Calm   8.0 km/h 93% 0.0 mm 0 W/m2
03:19 -1.1 °C -2.1 °C 983.6 hPa NNE 6.4 km/h 8.0 km/h 93% 0.0 mm 0 W/m2
03:24 -1.1 °C -2.1 °C 984.0 hPa Calm   3.2 km/h 93% 0.0 mm 0 W/m2
03:34 -1.1 °C -2.1 °C 983.6 hPa Calm   8.0 km/h 93% 0.0 mm 0 W/m2
03:39 -1.2 °C -2.2 °C 983.6 hPa NE 8.0 km/h 9.7 km/h 93% 0.0 mm 0 W/m2
03:44 -1.2 °C -2.2 °C 983.6 hPa NNE 3.2 km/h 9.7 km/h 93% 0.0 mm 0 W/m2
03:49 -1.2 °C -2.2 °C 984.0 hPa NNE 4.8 km/h 9.7 km/h 93% 0.0 mm 0 W/m2
03:54 -1.2 °C -2.2 °C 983.6 hPa Calm   8.0 km/h 93% 0.0 mm 0 W/m2
03:59 -1.2 °C -2.2 °C 983.6 hPa NNE 4.8 km/h 9.7 km/h 93% 0.0 mm 0 W/m2
04:04 -1.2 °C -2.2 °C 983.6 hPa North 4.8 km/h 8.0 km/h 93% 0.0 mm 0 W/m2
04:09 -1.2 °C -2.2 °C 983.6 hPa Calm   6.4 km/h 93% 0.0 mm 0 W/m2
04:19 -1.3 °C -2.3 °C 983.6 hPa NNE 8.0 km/h 8.0 km/h 93% 0.0 mm 0 W/m2
04:24 -1.3 °C -2.3 °C 983.3 hPa NE 9.7 km/h 9.7 km/h 93% 0.0 mm 0 W/m2
04:29 -1.4 °C -2.4 °C 983.3 hPa NE 3.2 km/h 9.7 km/h 93% 0.0 mm 0 W/m2
04:39 -1.4 °C -2.4 °C 983.3 hPa NNE 3.2 km/h 8.0 km/h 93% 0.0 mm 0 W/m2
04:44 -1.5 °C -2.5 °C 983.3 hPa NE 1.6 km/h 8.0 km/h 93% 0.0 mm 0 W/m2
04:54 -1.6 °C -2.6 °C 983.0 hPa NNE 1.6 km/h 12.9 km/h 93% 0.0 mm 0 W/m2
04:59 -1.6 °C -2.6 °C 983.0 hPa NNE 6.4 km/h 8.0 km/h 93% 0.0 mm 0 W/m2
05:09 -1.7 °C -2.7 °C 983.0 hPa NNE 3.2 km/h 12.9 km/h 93% 0.0 mm 0 W/m2
05:19 -1.8 °C -2.8 °C 983.0 hPa NNE 4.8 km/h 9.7 km/h 93% 0.0 mm 0 W/m2
05:24 -1.8 °C -2.8 °C 983.0 hPa NNE 1.6 km/h 8.0 km/h 93% 0.0 mm 0 W/m2
05:29 -1.9 °C -2.9 °C 983.0 hPa Calm   6.4 km/h 93% 0.0 mm 0 W/m2
05:34 -2.0 °C -3.0 °C 983.0 hPa Calm   11.3 km/h 93% 0.0 mm 0 W/m2
05:36 -2.0 °C -3.0 °C 983.0 hPa NNE 6.4 km/h 9.7 km/h 93% 0.0 mm 0 W/m2
05:41 -2.1 °C -3.1 °C 983.0 hPa ENE 3.2 km/h 9.7 km/h 93% 0.0 mm 0 W/m2
05:46 -2.1 °C -3.1 °C 983.0 hPa NNE 3.2 km/h 12.9 km/h 93% 0.0 mm 0 W/m2
05:51 -2.2 °C -3.2 °C 983.0 hPa NNE 8.0 km/h 11.3 km/h 93% 0.0 mm 0 W/m2
05:56 -2.2 °C -3.2 °C 983.0 hPa Calm   4.8 km/h 93% 0.0 mm 0 W/m2
06:01 -2.2 °C -3.2 °C 983.0 hPa NNE 3.2 km/h 8.0 km/h 93% 0.0 mm 0 W/m2
06:06 -2.3 °C -3.3 °C 983.0 hPa NNE 6.4 km/h 11.3 km/h 93% 0.0 mm 0 W/m2
06:11 -2.3 °C -3.3 °C 983.3 hPa NNE 1.6 km/h 6.4 km/h 93% 0.0 mm 0 W/m2
06:16 -2.3 °C -3.3 °C 983.3 hPa NE 4.8 km/h 4.8 km/h 93% 0.0 mm 0 W/m2
06:21 -2.3 °C -3.3 °C 983.3 hPa East 1.6 km/h 4.8 km/h 93% 0.0 mm 0 W/m2
06:26 -2.3 °C -3.3 °C 983.6 hPa Calm   6.4 km/h 93% 0.0 mm 0 W/m2
06:31 -2.4 °C -3.3 °C 983.6 hPa NE 1.6 km/h 4.8 km/h 93% 0.0 mm 0 W/m2
06:36 -2.3 °C -3.3 °C 984.0 hPa Calm   8.0 km/h 93% 0.0 mm 0 W/m2
06:41 -2.3 °C -3.3 °C 984.0 hPa NE 3.2 km/h 8.0 km/h 93% 0.0 mm 0 W/m2
06:46 -2.3 °C -3.3 °C 984.0 hPa NE 9.7 km/h 9.7 km/h 93% 0.0 mm 0 W/m2
06:51 -2.2 °C -3.2 °C 984.3 hPa NNE 1.6 km/h 8.0 km/h 93% 0.0 mm 0 W/m2
06:56 -2.2 °C -3.2 °C 984.3 hPa NNE 9.7 km/h 9.7 km/h 93% 0.0 mm 0 W/m2
07:01 -2.2 °C -3.2 °C 984.3 hPa NNE 8.0 km/h 9.7 km/h 93% 0.0 mm 0 W/m2
07:11 -2.2 °C -3.3 °C 984.3 hPa Calm   4.8 km/h 92% 0.0 mm 0 W/m2
07:13 -2.3 °C -3.4 °C 984.6 hPa Calm   8.0 km/h 92% 0.0 mm 0 W/m2
07:18 -2.3 °C -3.4 °C 984.6 hPa NNE 3.2 km/h 6.4 km/h 92% 0.0 mm 0 W/m2
07:23 -2.3 °C -3.4 °C 984.6 hPa Calm   4.8 km/h 92% 0.0 mm 0 W/m2
07:33 -2.4 °C -3.5 °C 985.0 hPa NE 6.4 km/h 6.4 km/h 92% 0.0 mm 0 W/m2
07:38 -2.4 °C -3.5 °C 985.0 hPa NE 3.2 km/h 6.4 km/h 92% 0.0 mm 0 W/m2
07:43 -2.4 °C -3.6 °C 985.0 hPa NNE 1.6 km/h 6.4 km/h 92% 0.0 mm 0 W/m2
07:48 -2.4 °C -3.6 °C 985.3 hPa Calm   4.8 km/h 92% 0.0 mm 0 W/m2
07:53 -2.4 °C -3.6 °C 985.3 hPa NNE 4.8 km/h 8.0 km/h 92% 0.0 mm 0 W/m2
07:58 -2.5 °C -3.6 °C 985.3 hPa NNE 4.8 km/h 4.8 km/h 92% 0.0 mm 0 W/m2
08:03 -2.5 °C -3.6 °C 985.0 hPa Calm     92% 0.0 mm 0 W/m2
08:13 -2.6 °C -3.7 °C 985.3 hPa NE 4.8 km/h 6.4 km/h 92% 0.0 mm 0 W/m2
08:18 -2.5 °C -3.6 °C 985.3 hPa Calm     92% 0.0 mm 0 W/m2
08:28 -2.5 °C -3.6 °C 985.7 hPa NNE 4.8 km/h 8.0 km/h 92% 0.0 mm 0 W/m2
08:33 -2.6 °C -3.7 °C 985.7 hPa Calm   1.6 km/h 92% 0.0 mm 0 W/m2
08:58 -2.4 °C -3.5 °C 985.7 hPa North 3.2 km/h 3.2 km/h 92% 0.0 mm 11 W/m2
09:03 -2.3 °C -3.4 °C 985.7 hPa NNE 6.4 km/h 8.0 km/h 92% 0.0 mm 12 W/m2
09:13 -2.3 °C -3.6 °C 986.0 hPa Calm   4.8 km/h 91% 0.0 mm 14 W/m2
09:23 -2.2 °C -3.5 °C 986.0 hPa Calm   8.0 km/h 91% 0.0 mm 18 W/m2
09:28 -2.2 °C -3.5 °C 986.3 hPa NNE 6.4 km/h 11.3 km/h 91% 0.0 mm 21 W/m2
09:35 -2.1 °C -3.4 °C 986.3 hPa Calm     91% 0.0 mm 21 W/m2
09:40 -2.1 °C -3.3 °C 986.3 hPa Calm   4.8 km/h 91% 0.0 mm 23 W/m2
09:45 -2.0 °C -3.3 °C 986.3 hPa NNE 3.2 km/h 9.7 km/h 91% 0.0 mm 25 W/m2
09:50 -1.9 °C -3.2 °C 986.3 hPa Calm   9.7 km/h 91% 0.0 mm 26 W/m2
09:55 -1.8 °C -3.2 °C 986.3 hPa NNE 3.2 km/h 8.0 km/h 90% 0.0 mm 28 W/m2
10:05 -1.7 °C -3.2 °C 986.7 hPa NNE 1.6 km/h 8.0 km/h 90% 0.0 mm 30 W/m2
10:10 -1.7 °C -3.1 °C 986.7 hPa North 1.6 km/h 11.3 km/h 90% 0.0 mm 32 W/m2
10:15 -1.6 °C -3.1 °C 986.7 hPa Calm   1.6 km/h 90% 0.0 mm 32 W/m2
10:18 -1.6 °C -3.1 °C 986.7 hPa NNE 6.4 km/h 8.0 km/h 90% 0.0 mm 33 W/m2
10:23 -1.6 °C -3.1 °C 986.7 hPa NE 3.2 km/h 8.0 km/h 89% 0.0 mm 33 W/m2
10:28 -1.5 °C -3.1 °C 986.7 hPa NE 9.7 km/h 12.9 km/h 89% 0.0 mm 33 W/m2
10:33 -1.4 °C -2.8 °C 986.7 hPa NNE 3.2 km/h 6.4 km/h 90% 0.0 mm 35 W/m2
10:38 -1.3 °C -2.8 °C 986.7 hPa NNE 3.2 km/h 8.0 km/h 89% 0.0 mm 37 W/m2
10:43 -1.2 °C -2.7 °C 986.7 hPa NNE 6.4 km/h 9.7 km/h 89% 0.0 mm 37 W/m2
10:48 -1.1 °C -2.6 °C 986.7 hPa Calm   4.8 km/h 89% 0.0 mm 40 W/m2
10:53 -1.1 °C -2.6 °C 986.7 hPa Calm   9.7 km/h 89% 0.0 mm 44 W/m2
10:58 -1.0 °C -2.6 °C 986.7 hPa NE 6.4 km/h 9.7 km/h 89% 0.0 mm 46 W/m2
11:03 -0.9 °C -2.5 °C 986.7 hPa NE 4.8 km/h 9.7 km/h 89% 0.0 mm 46 W/m2
11:08 -1.0 °C -2.7 °C 986.7 hPa Calm   8.0 km/h 88% 0.0 mm 46 W/m2
11:23 -0.7 °C -2.4 °C 986.7 hPa Calm   4.8 km/h 88% 0.0 mm 46 W/m2
11:28 -0.7 °C -2.4 °C 986.7 hPa NNE 4.8 km/h 8.0 km/h 88% 0.0 mm 46 W/m2
11:38 -0.5 °C -2.4 °C 987.0 hPa NNW 1.6 km/h 4.8 km/h 87% 0.0 mm 47 W/m2
11:43 -0.4 °C -2.3 °C 987.0 hPa NNE 6.4 km/h 11.3 km/h 87% 0.0 mm 51 W/m2
11:48 -0.3 °C -2.2 °C 987.0 hPa NE 1.6 km/h 6.4 km/h 87% 0.0 mm 51 W/m2
11:58 -0.2 °C -2.1 °C 987.0 hPa Calm   1.6 km/h 87% 0.0 mm 56 W/m2
12:08 -0.1 °C -1.9 °C 987.4 hPa NNE 4.8 km/h 6.4 km/h 87% 0.0 mm 67 W/m2
12:18 0.1 °C -1.8 °C 987.4 hPa ENE 1.6 km/h 8.0 km/h 87% 0.0 mm 139 W/m2
12:23 0.2 °C -1.9 °C 987.4 hPa NNW 1.6 km/h 3.2 km/h 86% 0.0 mm 167 W/m2
12:33 0.3 °C -1.8 °C 987.7 hPa Calm   9.7 km/h 86% 0.0 mm 302 W/m2
12:38 0.4 °C -1.6 °C 987.7 hPa Calm   12.9 km/h 86% 0.0 mm 338 W/m2
12:43 0.6 °C -1.5 °C 987.7 hPa Calm   3.2 km/h 86% 0.0 mm 304 W/m2
12:48 0.8 °C -1.3 °C 987.7 hPa North 1.6 km/h 8.0 km/h 86% 0.0 mm 318 W/m2
12:58 1.1 °C -1.3 °C 987.7 hPa Calm   6.4 km/h 84% 0.0 mm 250 W/m2
13:08 1.3 °C -1.1 °C 987.7 hPa NNE 4.8 km/h 16.1 km/h 84% 0.0 mm 183 W/m2
13:13 1.4 °C -1.2 °C 987.7 hPa Calm   11.3 km/h 83% 0.0 mm 176 W/m2
13:18 1.4 °C -1.1 °C 987.7 hPa NNE 9.7 km/h 9.7 km/h 83% 0.0 mm 169 W/m2
13:28 1.6 °C -1.1 °C 988.0 hPa Calm     82% 0.0 mm 155 W/m2
13:33 1.7 °C -1.2 °C 988.0 hPa North 4.8 km/h 4.8 km/h 81% 0.0 mm 149 W/m2
13:38 1.7 °C -1.2 °C 988.0 hPa Calm   8.0 km/h 81% 0.0 mm 144 W/m2
13:43 1.7 °C -1.4 °C 988.0 hPa WNW 4.8 km/h 8.0 km/h 80% 0.0 mm 137 W/m2
13:48 1.7 °C -1.4 °C 988.4 hPa Calm   9.7 km/h 80% 1.5 mm 132 W/m2
13:53 1.7 °C -1.3 °C 988.4 hPa NNE 3.2 km/h 6.4 km/h 80% 1.5 mm 125 W/m2
13:58 1.7 °C -1.3 °C 988.4 hPa WNW 9.7 km/h 12.9 km/h 80% 1.0 mm 120 W/m2
14:13 1.7 °C -1.6 °C 988.7 hPa North 9.7 km/h 9.7 km/h 79% 0.0 mm 100 W/m2
14:18 1.7 °C -1.6 °C 988.7 hPa Calm   1.6 km/h 79% 0.0 mm 91 W/m2
14:23 1.7 °C -1.7 °C 988.7 hPa Calm   3.2 km/h 78% 0.0 mm 86 W/m2
14:28 1.6 °C -1.8 °C 988.7 hPa NNW 3.2 km/h 4.8 km/h 78% 0.0 mm 79 W/m2
14:33 1.5 °C -1.9 °C 989.1 hPa NW 4.8 km/h 6.4 km/h 78% 0.0 mm 70 W/m2
14:38 1.4 °C -1.9 °C 989.1 hPa NW 3.2 km/h 11.3 km/h 78% 0.0 mm 63 W/m2
14:43 1.4 °C -2.0 °C 989.1 hPa Calm   6.4 km/h 78% 0.0 mm 56 W/m2
14:48 1.4 °C -1.9 °C 989.1 hPa Calm   4.8 km/h 78% 0.0 mm 49 W/m2
14:53 1.4 °C -2.2 °C 989.1 hPa Calm   6.4 km/h 77% 0.0 mm 44 W/m2
14:58 1.3 °C -2.1 °C 989.1 hPa NW 6.4 km/h 8.0 km/h 78% 0.0 mm 37 W/m2
15:03 1.3 °C -2.1 °C 989.1 hPa NW 3.2 km/h 8.0 km/h 78% 0.0 mm 32 W/m2
15:13 1.0 °C -2.4 °C 989.4 hPa NW 3.2 km/h 6.4 km/h 78% 0.0 mm 21 W/m2
15:18 0.9 °C -2.3 °C 989.4 hPa NW 8.0 km/h 11.3 km/h 79% 0.0 mm 18 W/m2
15:34 0.6 °C -2.7 °C 989.7 hPa NW 3.2 km/h 9.7 km/h 79% 0.0 mm 11 W/m2
15:39 0.4 °C -2.6 °C 989.7 hPa Calm     80% 0.0 mm 9 W/m2
15:44 0.3 °C -2.8 °C 989.7 hPa Calm   6.4 km/h 80% 0.0 mm 7 W/m2
15:49 0.1 °C -2.8 °C 989.7 hPa Calm   6.4 km/h 81% 0.0 mm 5 W/m2
15:59 -0.2 °C -3.1 °C 990.1 hPa Calm   3.2 km/h 81% 0.0 mm 0 W/m2
16:04 -0.4 °C -3.1 °C 990.1 hPa Calm     82% 0.0 mm 0 W/m2
16:14 -0.7 °C -3.4 °C 990.4 hPa Calm   6.4 km/h 82% 0.0 mm 0 W/m2
16:19 -0.8 °C -3.3 °C 990.4 hPa Calm     83% 0.0 mm 0 W/m2
16:24 -0.9 °C -3.4 °C 990.4 hPa Calm     83% 0.0 mm 0 W/m2
16:29 -0.9 °C -3.3 °C 990.4 hPa NW 1.6 km/h 4.8 km/h 84% 0.0 mm 0 W/m2
16:39 -1.0 °C -3.5 °C 990.7 hPa NW 1.6 km/h 6.4 km/h 83% 0.0 mm 0 W/m2
16:44 -1.1 °C -3.4 °C 990.7 hPa NW 4.8 km/h 8.0 km/h 84% 0.0 mm 0 W/m2
16:49 -1.1 °C -3.6 °C 990.7 hPa NW 3.2 km/h 6.4 km/h 83% 0.0 mm 0 W/m2
16:54 -1.1 °C -3.6 °C 991.1 hPa NW 3.2 km/h 4.8 km/h 83% 0.0 mm 0 W/m2
16:59 -1.1 °C -3.6 °C 991.1 hPa NW 3.2 km/h 8.0 km/h 83% 0.0 mm 0 W/m2
17:04 -1.2 °C -3.7 °C 991.1 hPa Calm   4.8 km/h 83% 0.0 mm 0 W/m2
17:09 -1.2 °C -3.7 °C 991.1 hPa NW 4.8 km/h 8.0 km/h 83% 0.0 mm 0 W/m2
17:14 -1.3 °C -3.8 °C 991.1 hPa Calm   4.8 km/h 83% 0.0 mm 0 W/m2
17:19 -1.3 °C -3.8 °C 991.4 hPa NW 3.2 km/h 3.2 km/h 83% 0.0 mm 0 W/m2
17:24 -1.3 °C -3.8 °C 991.4 hPa Calm   3.2 km/h 83% 0.0 mm 0 W/m2
17:29 -1.3 °C -3.8 °C 991.4 hPa Calm     83% 0.0 mm 0 W/m2
17:45 -1.4 °C -4.1 °C 991.8 hPa Calm   4.8 km/h 82% 0.0 mm 0 W/m2
17:50 -1.5 °C -4.2 °C 991.8 hPa Calm   3.2 km/h 82% 0.0 mm 0 W/m2
18:00 -1.6 °C -4.2 °C 992.1 hPa Calm   3.2 km/h 82% 0.0 mm 0 W/m2
18:05 -1.6 °C -4.3 °C 992.1 hPa WNW 3.2 km/h 4.8 km/h 82% 0.0 mm 0 W/m2
18:20 -1.7 °C -4.4 °C 992.1 hPa Calm   6.4 km/h 82% 0.0 mm 0 W/m2
18:25 -1.7 °C -4.4 °C 992.4 hPa Calm     82% 0.0 mm 0 W/m2
18:30 -1.8 °C -4.4 °C 992.4 hPa NW 1.6 km/h 3.2 km/h 82% 0.0 mm 0 W/m2
18:35 -1.8 °C -4.5 °C 992.8 hPa NW 1.6 km/h 3.2 km/h 82% 0.0 mm 0 W/m2
18:45 -1.9 °C -4.4 °C 992.8 hPa Calm     83% 0.0 mm 0 W/m2
18:50 -1.9 °C -4.4 °C 993.1 hPa Calm   6.4 km/h 83% 0.0 mm 0 W/m2
18:55 -1.9 °C -4.4 °C 993.1 hPa Calm     83% 0.0 mm 0 W/m2
19:00 -1.9 °C -4.4 °C 993.1 hPa Calm   8.0 km/h 83% 0.0 mm 0 W/m2
19:05 -1.9 °C -4.4 °C 993.5 hPa Calm   1.6 km/h 83% 0.0 mm 0 W/m2
19:10 -1.9 °C -4.2 °C 993.5 hPa Calm   4.8 km/h 84% 0.0 mm 0 W/m2
19:15 -1.9 °C -4.3 °C 993.5 hPa NW 1.6 km/h 4.8 km/h 84% 0.0 mm 0 W/m2
19:20 -2.0 °C -4.3 °C 993.8 hPa NW 1.6 km/h 3.2 km/h 84% 0.0 mm 0 W/m2
19:25 -2.0 °C -4.3 °C 993.8 hPa NW 4.8 km/h 4.8 km/h 84% 0.0 mm 0 W/m2
19:30 -2.0 °C -4.3 °C 993.8 hPa NW 1.6 km/h 4.8 km/h 84% 0.0 mm 0 W/m2
19:35 -2.0 °C -4.2 °C 993.8 hPa Calm   4.8 km/h 85% 0.0 mm 0 W/m2
19:40 -2.0 °C -4.2 °C 994.1 hPa NW 1.6 km/h 4.8 km/h 85% 0.0 mm 0 W/m2
19:45 -2.1 °C -4.2 °C 994.1 hPa Calm   3.2 km/h 85% 0.0 mm 0 W/m2
19:50 -2.2 °C -4.3 °C 994.1 hPa Calm     85% 0.0 mm 0 W/m2
19:55 -2.3 °C -4.4 °C 994.5 hPa Calm     85% 0.0 mm 0 W/m2
20:00 -2.4 °C -4.6 °C 994.5 hPa Calm     85% 0.0 mm 0 W/m2
20:10 -2.6 °C -4.7 °C 994.8 hPa Calm   1.6 km/h 85% 0.0 mm 0 W/m2
20:20 -2.7 °C -4.7 °C 995.1 hPa Calm     86% 0.0 mm 0 W/m2
20:25 -2.7 °C -4.7 °C 995.1 hPa Calm     86% 0.0 mm 0 W/m2
20:30 -2.8 °C -4.8 °C 995.5 hPa Calm     86% 0.0 mm 0 W/m2
20:35 -2.8 °C -4.7 °C 995.5 hPa NW 4.8 km/h 4.8 km/h 87% 0.0 mm 0 W/m2
20:40 -2.8 °C -4.7 °C 995.5 hPa Calm   1.6 km/h 87% 0.0 mm 0 W/m2
20:45 -2.8 °C -4.7 °C 995.5 hPa Calm     87% 0.0 mm 0 W/m2
Compliments of Weather Underground - 3.25 mb